Terminal Aerodrome Forecast
Issued by NWS

Home | Current Version | Previous Version | Graphics & Text | Print | Product List | Glossary On
Versions: 1 2 3 4 5 6 7 8 9 10 11 12 13 14 15 16 17 18 19 20 21 22 23 24 25
187
FTUS43 KLOT 272103 AAB
TAFDPA
TAF AMD
KDPA 272103Z 2721/2818 17011KT P6SM VCTS BKN040CB BKN100
      TEMPO 2721/2723 3SM SHRA BKN040 BKN100
     FM280000 18009KT P6SM VCSH SCT040 BKN120
     FM280300 18010KT P6SM BKN040
     FM281400 20012G18KT P6SM SCT015 BKN040=

USA.gov is the U.S. government's official web portal to all federal, state and local government web resources and services.